createdAt,value
2023-02-08T00:01:14.441Z,30.53
2023-02-08T00:03:42.724Z,26.50
2023-02-08T00:06:11.590Z,24.60
2023-02-08T00:08:40.077Z,25.83
2023-02-08T00:11:10.583Z,25.53
2023-02-08T00:13:42.109Z,23.97
2023-02-08T00:16:10.295Z,24.93
2023-02-08T00:18:38.413Z,27.20
2023-02-08T00:21:09.844Z,28.67
2023-02-08T00:23:38.098Z,27.47
2023-02-08T00:26:06.781Z,28.07
2023-02-08T00:28:34.787Z,27.07
2023-02-08T00:31:04.234Z,28.20
2023-02-08T00:33:32.182Z,26.33
2023-02-08T00:36:00.849Z,24.33
2023-02-08T00:38:28.817Z,24.30
2023-02-08T00:40:56.645Z,25.13
2023-02-08T00:43:25.362Z,23.67
2023-02-08T00:45:55.487Z,28.37
2023-02-08T00:48:27.038Z,25.53
2023-02-08T00:51:02.299Z,24.33
2023-02-08T00:53:30.549Z,27.53
2023-02-08T00:55:58.765Z,26.37
2023-02-08T00:58:26.525Z,26.30
2023-02-08T01:00:54.918Z,25.63
2023-02-08T01:03:23.292Z,33.23
2023-02-08T01:05:53.814Z,25.57
2023-02-08T01:08:22.078Z,24.03
2023-02-08T01:10:50.085Z,25.67
2023-02-08T01:13:18.000Z,27.30
2023-02-08T01:15:45.806Z,25.93
2023-02-08T01:18:13.557Z,24.57
2023-02-08T01:20:42.738Z,23.83
2023-02-08T01:23:11.871Z,26.97
2023-02-08T01:25:40.243Z,25.17
2023-02-08T01:28:08.110Z,25.33
2023-02-08T01:30:35.909Z,23.10
2023-02-08T01:33:03.739Z,25.47
2023-02-08T01:35:31.480Z,23.53
2023-02-08T01:37:59.404Z,23.63
2023-02-08T01:40:28.588Z,22.80
2023-02-08T01:42:56.373Z,21.23
2023-02-08T01:45:29.947Z,23.20
2023-02-08T01:48:11.534Z,21.27
2023-02-08T01:50:53.992Z,23.43
2023-02-08T01:53:25.183Z,19.97
2023-02-08T01:55:58.327Z,21.93
2023-02-08T01:58:29.177Z,23.13
2023-02-08T02:00:57.299Z,23.10
2023-02-08T02:03:25.912Z,22.40
2023-02-08T02:05:58.648Z,25.13
2023-02-08T02:08:26.778Z,21.23
2023-02-08T02:10:56.352Z,21.10
2023-02-08T02:13:27.160Z,21.60
2023-02-08T02:15:56.149Z,19.57
2023-02-08T02:18:27.409Z,18.97
2023-02-08T02:21:21.296Z,19.37
2023-02-08T02:24:23.027Z,23.23
2023-02-08T02:27:35.287Z,21.03
2023-02-08T02:30:32.815Z,20.20
2023-02-08T02:33:31.800Z,21.33
2023-02-08T02:36:03.835Z,20.43
2023-02-08T02:38:49.563Z,21.27
2023-02-08T02:41:41.260Z,18.87
2023-02-08T02:44:24.235Z,24.67
2023-02-08T02:47:01.216Z,18.50
2023-02-08T02:49:37.856Z,20.63
2023-02-08T02:52:11.044Z,20.20
2023-02-08T02:54:43.421Z,17.97
2023-02-08T02:57:16.111Z,20.17
2023-02-08T02:59:45.305Z,20.20
2023-02-08T03:02:13.865Z,19.77
2023-02-08T03:04:55.231Z,20.30
2023-02-08T03:07:45.134Z,17.87
2023-02-08T03:10:29.974Z,18.70
2023-02-08T03:13:05.218Z,19.10
2023-02-08T03:15:47.348Z,16.27
2023-02-08T03:18:30.370Z,17.70
2023-02-08T03:21:08.240Z,19.43
2023-02-08T03:23:42.688Z,15.30
2023-02-08T03:26:17.003Z,16.30
2023-02-08T03:28:56.684Z,17.30
2023-02-08T03:31:32.053Z,15.83
2023-02-08T03:34:03.918Z,15.47
2023-02-08T03:36:37.617Z,14.50
2023-02-08T03:39:11.188Z,14.07
2023-02-08T03:41:41.706Z,14.37
2023-02-08T03:44:15.734Z,14.83
2023-02-08T03:46:49.265Z,12.63
2023-02-08T03:49:22.989Z,14.77
2023-02-08T03:51:53.954Z,14.97
2023-02-08T03:54:26.408Z,13.90
2023-02-08T03:57:02.290Z,15.03
2023-02-08T03:59:38.008Z,15.83
2023-02-08T04:02:10.647Z,14.63
2023-02-08T04:04:47.197Z,13.50
2023-02-08T04:07:17.822Z,14.77
2023-02-08T04:09:45.938Z,13.90
2023-02-08T04:12:13.765Z,15.07
2023-02-08T04:14:41.528Z,13.27
2023-02-08T04:17:09.470Z,16.63
2023-02-08T04:19:37.361Z,14.63
2023-02-08T04:22:05.122Z,14.70
2023-02-08T04:24:34.310Z,14.03
2023-02-08T04:27:03.474Z,14.50
2023-02-08T04:29:32.812Z,13.47
2023-02-08T04:32:01.045Z,13.90
2023-02-08T04:34:28.951Z,14.17
2023-02-08T04:36:56.914Z,14.03
2023-02-08T04:39:24.823Z,13.50
2023-02-08T04:41:53.988Z,12.10
2023-02-08T04:44:21.780Z,12.90
2023-02-08T04:46:49.727Z,13.67
2023-02-08T04:49:17.575Z,12.37
2023-02-08T04:51:45.476Z,13.33
2023-02-08T04:54:13.342Z,14.60
2023-02-08T04:56:41.315Z,15.47
2023-02-08T04:59:10.445Z,15.57
2023-02-08T05:01:38.287Z,13.23
2023-02-08T05:04:06.119Z,12.63
2023-02-08T05:06:34.331Z,13.03
2023-02-08T05:09:02.160Z,14.57
2023-02-08T05:11:29.980Z,15.73
2023-02-08T05:13:57.862Z,13.90
2023-02-08T05:16:27.073Z,13.40
2023-02-08T05:18:56.663Z,13.80
2023-02-08T05:21:24.816Z,12.70
2023-02-08T05:23:53.467Z,13.80
2023-02-08T05:26:21.777Z,12.73
2023-02-08T05:28:49.880Z,14.93
2023-02-08T05:31:20.834Z,13.10
2023-02-08T05:33:50.648Z,12.97
2023-02-08T05:36:19.062Z,11.93
2023-02-08T05:38:46.950Z,16.07
2023-02-08T05:41:14.790Z,14.20
2023-02-08T05:43:42.724Z,13.77
2023-02-08T05:46:10.518Z,14.93
2023-02-08T05:48:38.679Z,13.07
2023-02-08T05:51:07.906Z,14.30
2023-02-08T05:53:36.781Z,13.53
2023-02-08T05:56:04.700Z,14.80
2023-02-08T05:58:32.681Z,14.10
2023-02-08T06:01:00.454Z,14.67
2023-02-08T06:03:28.467Z,14.30
2023-02-08T06:05:56.322Z,14.70
2023-02-08T06:08:25.746Z,14.47
2023-02-08T06:10:53.479Z,14.50
2023-02-08T06:13:21.417Z,15.27
2023-02-08T06:15:49.125Z,14.13
2023-02-08T06:18:16.969Z,14.57
2023-02-08T06:20:44.735Z,15.03
2023-02-08T06:23:12.439Z,14.03
2023-02-08T06:25:41.631Z,18.63
2023-02-08T06:28:10.891Z,13.63
2023-02-08T06:30:39.170Z,14.40
2023-02-08T06:33:07.358Z,14.27
2023-02-08T06:35:35.292Z,14.30
2023-02-08T06:38:03.044Z,17.37
2023-02-08T06:40:31.321Z,15.93
2023-02-08T06:43:00.457Z,15.77
2023-02-08T06:45:28.331Z,13.73
2023-02-08T06:47:56.136Z,14.83
2023-02-08T06:50:24.270Z,15.40
2023-02-08T06:52:52.102Z,13.43
2023-02-08T06:55:19.973Z,17.20
2023-02-08T06:57:47.751Z,15.27
2023-02-08T07:00:17.542Z,16.13
2023-02-08T07:02:47.268Z,13.97
2023-02-08T07:05:15.360Z,16.47
2023-02-08T07:07:43.136Z,14.87
2023-02-08T07:10:10.989Z,16.53
2023-02-08T07:12:39.010Z,16.07
2023-02-08T07:15:07.272Z,16.60
2023-02-08T07:17:36.390Z,16.53
2023-02-08T07:20:04.500Z,17.77
2023-02-08T07:22:32.306Z,15.23
2023-02-08T07:25:00.193Z,15.97
2023-02-08T07:27:28.111Z,18.90
2023-02-08T07:29:55.883Z,15.63
2023-02-08T07:32:23.711Z,15.80
2023-02-08T07:34:54.015Z,16.17
2023-02-08T07:37:21.826Z,18.03
2023-02-08T07:39:49.776Z,16.07
2023-02-08T07:42:17.541Z,17.50
2023-02-08T07:44:55.529Z,12.93
2023-02-08T07:47:23.305Z,19.10
2023-02-08T07:49:52.520Z,15.43
2023-02-08T07:52:20.287Z,15.00
2023-02-08T07:54:48.060Z,14.30
2023-02-08T07:57:21.025Z,14.50
2023-02-08T07:59:49.359Z,14.33
2023-02-08T08:02:17.346Z,13.73
2023-02-08T08:04:45.079Z,12.33
2023-02-08T08:07:14.262Z,15.30
2023-02-08T08:09:42.039Z,13.37
2023-02-08T08:12:09.856Z,14.70
2023-02-08T08:14:37.657Z,14.63
2023-02-08T08:17:05.455Z,13.43
2023-02-08T08:19:33.229Z,15.53
2023-02-08T08:22:01.054Z,15.00
2023-02-08T08:24:31.666Z,12.07
2023-02-08T08:26:59.446Z,13.40
2023-02-08T08:29:27.217Z,11.77
2023-02-08T08:31:55.133Z,14.47
2023-02-08T08:34:29.534Z,13.83
2023-02-08T08:36:57.438Z,13.97
2023-02-08T08:39:25.700Z,11.40
2023-02-08T08:41:55.230Z,10.20
2023-02-08T08:44:23.104Z,11.70
2023-02-08T08:46:51.118Z,14.20
2023-02-08T08:49:18.849Z,11.37
2023-02-08T08:51:46.654Z,10.87
2023-02-08T08:54:14.498Z,10.03
2023-02-08T08:56:42.296Z,12.10
2023-02-08T08:59:11.564Z,9.47
2023-02-08T09:01:41.278Z,9.60
2023-02-08T09:04:09.250Z,11.53
2023-02-08T09:06:37.238Z,10.37
2023-02-08T09:09:05.534Z,10.30
2023-02-08T09:11:38.064Z,9.77
2023-02-08T09:14:06.368Z,10.07
2023-02-08T09:16:35.684Z,10.43
2023-02-08T09:19:03.888Z,12.77
2023-02-08T09:21:32.197Z,10.00
2023-02-08T09:24:00.025Z,8.73
2023-02-08T09:26:27.949Z,11.10
2023-02-08T09:28:56.676Z,11.43
2023-02-08T09:31:26.859Z,7.93
2023-02-08T09:33:57.716Z,8.97
2023-02-08T09:36:27.987Z,10.30
2023-02-08T09:39:00.282Z,9.10
2023-02-08T09:41:42.659Z,7.50
2023-02-08T09:44:21.956Z,6.60
2023-02-08T09:46:57.716Z,12.07
2023-02-08T09:49:33.182Z,11.40
2023-02-08T09:52:04.557Z,6.40
2023-02-08T09:54:36.216Z,6.63
2023-02-08T09:57:08.133Z,5.53
2023-02-08T09:59:37.399Z,5.23
2023-02-08T10:02:18.853Z,5.30
2023-02-08T10:04:57.999Z,5.20
2023-02-08T10:07:26.655Z,5.67
2023-02-08T10:09:57.460Z,4.40
2023-02-08T10:12:35.980Z,5.50
2023-02-08T10:15:15.114Z,4.70
2023-02-08T10:18:02.571Z,5.00
2023-02-08T10:20:47.251Z,6.13
2023-02-08T10:23:28.332Z,4.10
2023-02-08T10:26:14.854Z,5.77
2023-02-08T10:29:01.690Z,4.77
2023-02-08T10:31:43.737Z,4.37
2023-02-08T10:34:26.549Z,4.73
2023-02-08T10:36:56.827Z,3.53
2023-02-08T10:39:29.507Z,5.27
2023-02-08T10:41:57.424Z,5.07
2023-02-08T10:44:34.051Z,4.40
2023-02-08T10:47:13.539Z,4.53
2023-02-08T10:49:50.166Z,4.53
2023-02-08T10:52:19.836Z,4.50
2023-02-08T10:54:47.555Z,5.53
2023-02-08T10:57:19.417Z,5.03
2023-02-08T10:59:50.664Z,3.20
2023-02-08T11:02:23.970Z,5.87
2023-02-08T11:05:00.053Z,3.37
2023-02-08T11:07:29.719Z,4.00
2023-02-08T11:10:23.117Z,4.07
2023-02-08T11:12:56.719Z,5.57
2023-02-08T11:15:27.907Z,2.10
2023-02-08T11:18:00.612Z,2.42
2023-02-08T11:20:34.716Z,2.67
2023-02-08T11:23:04.206Z,3.05
2023-02-08T11:25:38.909Z,3.72
2023-02-08T11:28:22.794Z,3.97
2023-02-08T11:30:57.803Z,3.88
2023-02-08T11:33:27.342Z,4.05
2023-02-08T11:35:57.647Z,2.47
2023-02-08T11:38:28.579Z,2.70
2023-02-08T11:40:58.694Z,3.42
2023-02-08T11:43:28.421Z,3.30
2023-02-08T11:45:57.808Z,4.68
2023-02-08T11:48:30.870Z,3.40
2023-02-08T11:51:01.622Z,4.20
2023-02-08T11:53:36.625Z,3.63
2023-02-08T11:56:08.572Z,3.08
2023-02-08T11:58:36.341Z,4.15
2023-02-08T12:01:06.549Z,4.13
2023-02-08T12:03:38.593Z,4.78
2023-02-08T12:06:40.605Z,2.80
2023-02-08T12:09:18.456Z,3.42
2023-02-08T12:11:49.256Z,6.25
2023-02-08T12:14:33.507Z,4.88
2023-02-08T12:17:29.678Z,2.65
2023-02-08T12:20:15.779Z,2.97
2023-02-08T12:22:51.475Z,4.53
2023-02-08T12:25:30.385Z,3.38
2023-02-08T12:28:06.282Z,3.63
2023-02-08T12:30:37.008Z,3.92
2023-02-08T12:33:20.720Z,5.38
2023-02-08T12:36:05.283Z,2.83
2023-02-08T12:39:38.410Z,4.65
2023-02-08T12:42:22.980Z,4.53
2023-02-08T12:45:15.271Z,3.33
2023-02-08T12:48:04.515Z,3.33
2023-02-08T12:50:41.956Z,3.50
2023-02-08T12:53:21.713Z,3.40
2023-02-08T12:55:51.701Z,3.63
2023-02-08T12:58:28.291Z,4.07
2023-02-08T13:01:01.391Z,4.75
2023-02-08T13:03:39.515Z,5.00
2023-02-08T13:06:14.756Z,6.93
2023-02-08T13:08:48.767Z,3.83
2023-02-08T13:11:23.594Z,5.65
2023-02-08T13:13:58.951Z,4.32
2023-02-08T13:16:30.332Z,4.78
2023-02-08T13:19:08.301Z,5.78
2023-02-08T13:21:41.868Z,4.85
2023-02-08T13:24:22.560Z,4.93
2023-02-08T13:26:50.515Z,6.97
2023-02-08T13:29:21.474Z,4.10
2023-02-08T13:31:53.087Z,6.10
2023-02-08T13:34:29.391Z,4.55
2023-02-08T13:37:00.556Z,4.70
2023-02-08T13:39:36.057Z,6.35
2023-02-08T13:42:05.976Z,5.90
2023-02-08T13:44:38.154Z,5.55
2023-02-08T13:47:07.138Z,5.03
2023-02-08T13:49:54.982Z,6.97
2023-02-08T13:52:49.665Z,5.47
2023-02-08T13:55:44.235Z,5.03
2023-02-08T13:58:52.969Z,5.22
2023-02-08T14:01:25.289Z,5.05
2023-02-08T14:04:34.792Z,4.80
2023-02-08T14:07:08.572Z,4.45
2023-02-08T14:09:47.406Z,6.20
2023-02-08T14:12:22.416Z,3.55
2023-02-08T14:15:28.644Z,4.00
2023-02-08T14:18:00.529Z,3.92
2023-02-08T14:20:33.760Z,7.55
2023-02-08T14:23:03.865Z,5.97
2023-02-08T14:25:44.647Z,8.95
2023-02-08T14:28:26.699Z,9.60
2023-02-08T14:30:57.816Z,7.40
2023-02-08T14:33:31.235Z,7.60
2023-02-08T14:36:01.958Z,5.95
2023-02-08T14:38:50.453Z,4.55
2023-02-08T14:41:47.937Z,5.57
2023-02-08T14:44:54.160Z,6.28
2023-02-08T14:47:58.338Z,6.57
2023-02-08T14:50:31.802Z,2.75
2023-02-08T14:53:06.366Z,4.72
2023-02-08T14:55:42.163Z,4.15
2023-02-08T14:58:16.395Z,3.20
2023-02-08T15:00:45.546Z,2.85
2023-02-08T15:03:18.762Z,5.53
2023-02-08T15:06:17.491Z,3.28
2023-02-08T15:08:50.663Z,3.63
2023-02-08T15:11:25.004Z,3.08
2023-02-08T15:13:55.988Z,2.90
2023-02-08T15:16:34.505Z,4.95
2023-02-08T15:19:04.475Z,3.00
2023-02-08T15:21:36.668Z,2.63
2023-02-08T15:24:07.866Z,3.75
2023-02-08T15:26:36.007Z,3.58
2023-02-08T15:29:04.135Z,2.40
2023-02-08T15:31:34.842Z,2.58
2023-02-08T15:34:03.623Z,3.75
2023-02-08T15:36:35.221Z,3.97
2023-02-08T15:39:09.954Z,3.70
2023-02-08T15:41:38.113Z,4.85
2023-02-08T15:44:18.042Z,3.58
2023-02-08T15:46:47.321Z,8.32
2023-02-08T15:49:17.353Z,4.95
2023-02-08T15:51:48.415Z,5.10
2023-02-08T15:54:19.330Z,4.93
2023-02-08T15:56:51.392Z,3.63
2023-02-08T15:59:25.050Z,3.97
2023-02-08T16:01:54.364Z,7.88
2023-02-08T16:04:22.840Z,5.15
2023-02-08T16:06:55.028Z,5.75
2023-02-08T16:09:27.135Z,7.50
2023-02-08T16:11:57.857Z,3.47
2023-02-08T16:14:30.193Z,5.00
2023-02-08T16:16:59.561Z,5.67
2023-02-08T16:19:29.992Z,4.13
2023-02-08T16:22:25.705Z,3.83
2023-02-08T16:24:53.570Z,4.90
2023-02-08T16:27:26.368Z,5.00
2023-02-08T16:29:55.100Z,5.20
2023-02-08T16:32:30.135Z,3.97
2023-02-08T16:34:58.423Z,5.53
2023-02-08T16:37:30.951Z,6.37
2023-02-08T16:40:00.095Z,5.20
2023-02-08T16:42:31.474Z,5.83
2023-02-08T16:45:13.650Z,8.80
2023-02-08T16:47:43.470Z,4.00
2023-02-08T16:50:13.908Z,4.10
2023-02-08T16:52:43.251Z,7.60
2023-02-08T16:55:17.719Z,6.00
2023-02-08T16:57:48.066Z,5.43
2023-02-08T17:00:20.693Z,5.10
2023-02-08T17:02:48.712Z,6.33
2023-02-08T17:05:20.898Z,5.47
2023-02-08T17:07:50.412Z,7.57
2023-02-08T17:10:23.089Z,5.60
2023-02-08T17:12:50.961Z,5.13
2023-02-08T17:15:20.946Z,7.40
2023-02-08T17:17:49.074Z,7.77
2023-02-08T17:20:23.075Z,8.63
2023-02-08T17:22:53.956Z,6.50
2023-02-08T17:25:22.918Z,6.57
2023-02-08T17:27:55.305Z,6.63
2023-02-08T17:30:26.161Z,5.70
2023-02-08T17:32:56.110Z,8.93
2023-02-08T17:35:24.458Z,7.70
2023-02-08T17:37:54.223Z,6.03
2023-02-08T17:40:23.794Z,9.27
2023-02-08T17:42:53.676Z,5.97
2023-02-08T17:45:21.548Z,7.27
2023-02-08T17:47:49.670Z,6.87
2023-02-08T17:50:19.324Z,7.93
2023-02-08T17:52:48.075Z,7.10
2023-02-08T17:55:19.080Z,7.97
2023-02-08T17:57:47.580Z,9.37
2023-02-08T18:00:17.347Z,11.57
2023-02-08T18:02:46.803Z,13.13
2023-02-08T18:05:15.151Z,8.07
2023-02-08T18:07:43.096Z,10.77
2023-02-08T18:10:13.224Z,8.77
2023-02-08T18:12:43.104Z,9.37
2023-02-08T18:15:14.451Z,11.73
2023-02-08T18:17:42.715Z,10.03
2023-02-08T18:20:11.986Z,11.13
2023-02-08T18:22:40.421Z,12.60
2023-02-08T18:25:09.312Z,17.33
2023-02-08T18:27:37.331Z,12.33
2023-02-08T18:30:07.477Z,14.20
2023-02-08T18:32:35.424Z,12.43
2023-02-08T18:35:04.250Z,13.50
2023-02-08T18:37:33.112Z,12.93
2023-02-08T18:40:01.377Z,13.20
2023-02-08T18:42:29.153Z,12.13
2023-02-08T18:44:57.085Z,13.00
2023-02-08T18:47:26.271Z,11.47
2023-02-08T18:49:55.025Z,11.67
2023-02-08T18:52:24.211Z,10.37
2023-02-08T18:54:52.194Z,14.97
2023-02-08T18:57:20.061Z,18.07
2023-02-08T18:59:47.942Z,15.00
2023-02-08T19:02:20.735Z,17.43
2023-02-08T19:04:50.769Z,17.17
2023-02-08T19:07:18.807Z,13.53
2023-02-08T19:09:46.720Z,14.63
2023-02-08T19:12:15.854Z,20.23
2023-02-08T19:14:44.331Z,18.47
2023-02-08T19:17:14.771Z,16.40
2023-02-08T19:19:42.848Z,38.77
2023-02-08T19:22:12.182Z,42.83
2023-02-08T19:24:39.996Z,48.77
2023-02-08T19:27:07.953Z,42.53
2023-02-08T19:29:35.710Z,40.47
2023-02-08T19:32:03.518Z,41.43
2023-02-08T19:34:31.464Z,43.67
2023-02-08T19:36:59.191Z,38.33
2023-02-08T19:39:28.927Z,29.63
2023-02-08T19:41:58.567Z,32.60
2023-02-08T19:44:29.785Z,36.13
2023-02-08T19:46:58.328Z,33.10
2023-02-08T19:49:27.579Z,28.13
2023-02-08T19:51:55.902Z,25.30
2023-02-08T19:54:23.772Z,25.00
2023-02-08T19:56:54.690Z,32.50
2023-02-08T19:59:26.563Z,33.07
2023-02-08T20:01:55.434Z,26.17
2023-02-08T20:04:23.897Z,21.10
2023-02-08T20:06:53.769Z,21.37
2023-02-08T20:09:21.866Z,20.23
2023-02-08T20:11:57.221Z,17.70
2023-02-08T20:14:28.947Z,17.33
2023-02-08T20:16:56.802Z,15.90
2023-02-08T20:19:25.126Z,21.57
2023-02-08T20:21:53.627Z,14.90
2023-02-08T20:24:21.991Z,14.03
2023-02-08T20:26:50.238Z,14.23
2023-02-08T20:29:18.518Z,15.37
2023-02-08T20:31:51.940Z,15.60
2023-02-08T20:34:19.910Z,16.80
2023-02-08T20:37:06.998Z,17.30
2023-02-08T20:39:36.909Z,14.33
2023-02-08T20:42:05.616Z,13.27
2023-02-08T20:44:33.670Z,15.87
2023-02-08T20:47:03.239Z,15.00
2023-02-08T20:49:32.268Z,17.50
2023-02-08T20:52:00.606Z,15.40
2023-02-08T20:54:28.520Z,15.70
2023-02-08T20:56:56.582Z,13.73
2023-02-08T20:59:24.586Z,17.47
2023-02-08T21:01:52.610Z,17.10
2023-02-08T21:04:23.557Z,18.13
2023-02-08T21:06:52.696Z,16.67
2023-02-08T21:09:21.478Z,17.07
2023-02-08T21:11:50.307Z,16.23
2023-02-08T21:14:21.455Z,17.57
2023-02-08T21:16:51.305Z,16.17
2023-02-08T21:19:21.623Z,17.67
2023-02-08T21:21:52.005Z,17.40
2023-02-08T21:24:20.299Z,13.93
2023-02-08T21:26:48.478Z,14.63
2023-02-08T21:29:16.539Z,14.30
2023-02-08T21:31:45.021Z,18.30
2023-02-08T21:34:13.889Z,17.50
2023-02-08T21:36:43.258Z,14.50
2023-02-08T21:39:11.168Z,17.60
2023-02-08T21:41:39.273Z,17.20
2023-02-08T21:44:08.280Z,16.37
2023-02-08T21:46:36.743Z,17.63
2023-02-08T21:49:22.519Z,19.20
2023-02-08T21:52:09.169Z,19.93
2023-02-08T21:54:42.984Z,20.00
2023-02-08T21:57:15.081Z,17.63
2023-02-08T21:59:43.428Z,17.63
2023-02-08T22:02:14.659Z,17.07
2023-02-08T22:04:46.602Z,18.87
2023-02-08T22:07:16.056Z,18.03
2023-02-08T22:09:43.919Z,17.27
2023-02-08T22:12:15.074Z,21.13
2023-02-08T22:14:43.049Z,17.63
2023-02-08T22:17:11.429Z,19.90
2023-02-08T22:19:39.827Z,19.23
2023-02-08T22:22:07.782Z,24.37
2023-02-08T22:24:37.560Z,23.00
2023-02-08T22:27:05.621Z,22.73
2023-02-08T22:29:33.554Z,23.53
2023-02-08T22:32:02.077Z,21.63
2023-02-08T22:34:30.314Z,22.97
2023-02-08T22:36:58.104Z,20.90
2023-02-08T22:39:26.194Z,24.27
2023-02-08T22:41:55.327Z,21.23
2023-02-08T22:44:23.112Z,21.97
2023-02-08T22:46:50.911Z,22.53
2023-02-08T22:49:18.705Z,22.43
2023-02-08T22:51:46.474Z,20.37
2023-02-08T22:54:14.276Z,19.83
2023-02-08T22:56:42.043Z,19.73
2023-02-08T22:59:11.175Z,19.20
2023-02-08T23:01:39.000Z,18.90
2023-02-08T23:04:06.902Z,17.67
2023-02-08T23:06:35.576Z,21.30
2023-02-08T23:09:04.141Z,17.47
2023-02-08T23:11:32.303Z,20.70
2023-02-08T23:14:00.651Z,19.20
2023-02-08T23:16:29.876Z,24.23
2023-02-08T23:18:58.219Z,25.90
2023-02-08T23:21:25.970Z,22.37
2023-02-08T23:23:53.791Z,25.83
2023-02-08T23:26:22.656Z,22.70
2023-02-08T23:28:51.850Z,24.30
2023-02-08T23:31:20.689Z,22.10
2023-02-08T23:33:50.386Z,24.87
2023-02-08T23:36:20.555Z,24.53
2023-02-08T23:38:49.036Z,22.03
2023-02-08T23:41:18.769Z,23.03
2023-02-08T23:43:46.578Z,22.00
2023-02-08T23:46:16.992Z,20.43
2023-02-08T23:48:47.556Z,29.70
2023-02-08T23:51:17.934Z,24.43
2023-02-08T23:53:46.448Z,20.17
2023-02-08T23:56:16.739Z,24.00
2023-02-08T23:58:46.203Z,24.67
